sensor_id;sensor_type;location;lat;lon;timestamp;temperature;humidity
5850;DHT22;2951;47.712;9.400;2023-02-03T00:00:49;5.10;99.90
5850;DHT22;2951;47.712;9.400;2023-02-03T00:03:15;5.10;99.90
5850;DHT22;2951;47.712;9.400;2023-02-03T00:05:42;5.10;99.90
5850;DHT22;2951;47.712;9.400;2023-02-03T00:08:09;5.20;99.90
5850;DHT22;2951;47.712;9.400;2023-02-03T00:10:36;5.20;99.90
5850;DHT22;2951;47.712;9.400;2023-02-03T00:13:04;5.10;99.90
5850;DHT22;2951;47.712;9.400;2023-02-03T00:15:31;5.20;99.90
5850;DHT22;2951;47.712;9.400;2023-02-03T00:17:58;5.10;99.90
5850;DHT22;2951;47.712;9.400;2023-02-03T00:20:25;5.10;99.90
5850;DHT22;2951;47.712;9.400;2023-02-03T00:22:52;5.00;99.90
5850;DHT22;2951;47.712;9.400;2023-02-03T00:25:19;5.00;99.90
5850;DHT22;2951;47.712;9.400;2023-02-03T00:27:46;5.00;99.90
5850;DHT22;2951;47.712;9.400;2023-02-03T00:30:13;5.00;99.90
5850;DHT22;2951;47.712;9.400;2023-02-03T00:32:40;5.00;99.90
5850;DHT22;2951;47.712;9.400;2023-02-03T00:35:06;5.00;99.90
5850;DHT22;2951;47.712;9.400;2023-02-03T00:37:33;5.10;99.90
5850;DHT22;2951;47.712;9.400;2023-02-03T00:40:00;5.10;99.90
5850;DHT22;2951;47.712;9.400;2023-02-03T00:42:26;5.10;99.90
5850;DHT22;2951;47.712;9.400;2023-02-03T00:44:53;5.20;99.90
5850;DHT22;2951;47.712;9.400;2023-02-03T00:47:20;5.20;99.90
5850;DHT22;2951;47.712;9.400;2023-02-03T00:49:46;5.20;99.90
5850;DHT22;2951;47.712;9.400;2023-02-03T00:52:13;5.20;99.90
5850;DHT22;2951;47.712;9.400;2023-02-03T00:54:39;5.20;99.90
5850;DHT22;2951;47.712;9.400;2023-02-03T00:57:06;5.20;99.90
5850;DHT22;2951;47.712;9.400;2023-02-03T00:59:33;5.20;99.90
5850;DHT22;2951;47.712;9.400;2023-02-03T01:01:59;5.20;99.90
5850;DHT22;2951;47.712;9.400;2023-02-03T01:04:26;5.20;99.90
5850;DHT22;2951;47.712;9.400;2023-02-03T01:06:53;5.20;99.90
5850;DHT22;2951;47.712;9.400;2023-02-03T01:09:23;5.20;99.90
5850;DHT22;2951;47.712;9.400;2023-02-03T01:11:49;5.20;99.90
5850;DHT22;2951;47.712;9.400;2023-02-03T01:14:16;5.20;99.90
5850;DHT22;2951;47.712;9.400;2023-02-03T01:16:43;5.10;99.90
5850;DHT22;2951;47.712;9.400;2023-02-03T01:19:09;5.20;99.90
5850;DHT22;2951;47.712;9.400;2023-02-03T01:21:36;5.10;99.90
5850;DHT22;2951;47.712;9.400;2023-02-03T01:24:03;5.10;99.90
5850;DHT22;2951;47.712;9.400;2023-02-03T01:26:29;5.10;99.90
5850;DHT22;2951;47.712;9.400;2023-02-03T01:28:57;5.10;99.90
5850;DHT22;2951;47.712;9.400;2023-02-03T01:31:25;5.10;99.90
5850;DHT22;2951;47.712;9.400;2023-02-03T01:33:52;5.10;99.90
5850;DHT22;2951;47.712;9.400;2023-02-03T01:36:20;5.10;99.90
5850;DHT22;2951;47.712;9.400;2023-02-03T01:38:47;5.10;99.90
5850;DHT22;2951;47.712;9.400;2023-02-03T01:41:18;5.00;99.90
5850;DHT22;2951;47.712;9.400;2023-02-03T01:43:46;5.10;99.90
5850;DHT22;2951;47.712;9.400;2023-02-03T01:49:00;5.00;99.90
5850;DHT22;2951;47.712;9.400;2023-02-03T01:51:30;5.00;99.90
5850;DHT22;2951;47.712;9.400;2023-02-03T01:53:57;5.00;99.90
5850;DHT22;2951;47.712;9.400;2023-02-03T01:56:24;5.00;99.90
5850;DHT22;2951;47.712;9.400;2023-02-03T01:58:53;5.10;99.90
5850;DHT22;2951;47.712;9.400;2023-02-03T02:01:19;5.10;99.90
5850;DHT22;2951;47.712;9.400;2023-02-03T02:03:50;5.10;99.90
5850;DHT22;2951;47.712;9.400;2023-02-03T02:06:17;5.10;99.90
5850;DHT22;2951;47.712;9.400;2023-02-03T02:08:45;5.10;99.90
5850;DHT22;2951;47.712;9.400;2023-02-03T02:11:13;5.10;99.90
5850;DHT22;2951;47.712;9.400;2023-02-03T02:13:39;5.10;99.90
5850;DHT22;2951;47.712;9.400;2023-02-03T02:16:21;5.10;99.90
5850;DHT22;2951;47.712;9.400;2023-02-03T02:19:05;5.10;99.90
5850;DHT22;2951;47.712;9.400;2023-02-03T02:29:48;5.10;99.90
5850;DHT22;2951;47.712;9.400;2023-02-03T02:37:48;4.90;99.90
5850;DHT22;2951;47.712;9.400;2023-02-03T02:43:09;5.00;99.90
5850;DHT22;2951;47.712;9.400;2023-02-03T02:48:09;5.00;99.90
5850;DHT22;2951;47.712;9.400;2023-02-03T02:50:39;5.00;99.90
5850;DHT22;2951;47.712;9.400;2023-02-03T02:53:07;5.00;99.90
5850;DHT22;2951;47.712;9.400;2023-02-03T02:55:34;5.00;99.90
5850;DHT22;2951;47.712;9.400;2023-02-03T02:58:04;5.00;99.90
5850;DHT22;2951;47.712;9.400;2023-02-03T03:00:33;5.00;99.90
5850;DHT22;2951;47.712;9.400;2023-02-03T03:05:58;5.00;99.90
5850;DHT22;2951;47.712;9.400;2023-02-03T03:08:27;4.90;99.90
5850;DHT22;2951;47.712;9.400;2023-02-03T03:10:56;4.90;99.90
5850;DHT22;2951;47.712;9.400;2023-02-03T03:13:24;4.90;99.90
5850;DHT22;2951;47.712;9.400;2023-02-03T03:15:53;4.90;99.90
5850;DHT22;2951;47.712;9.400;2023-02-03T03:18:27;4.90;99.90
5850;DHT22;2951;47.712;9.400;2023-02-03T03:20:56;4.90;99.90
5850;DHT22;2951;47.712;9.400;2023-02-03T03:23:36;4.90;99.90
5850;DHT22;2951;47.712;9.400;2023-02-03T03:26:12;4.90;99.90
5850;DHT22;2951;47.712;9.400;2023-02-03T03:28:46;4.90;99.90
5850;DHT22;2951;47.712;9.400;2023-02-03T03:31:14;4.90;99.90
5850;DHT22;2951;47.712;9.400;2023-02-03T03:33:41;4.90;99.90
5850;DHT22;2951;47.712;9.400;2023-02-03T03:36:15;5.00;99.90
5850;DHT22;2951;47.712;9.400;2023-02-03T03:38:45;4.90;99.90
5850;DHT22;2951;47.712;9.400;2023-02-03T03:41:27;5.00;99.90
5850;DHT22;2951;47.712;9.400;2023-02-03T03:43:58;5.00;99.90
5850;DHT22;2951;47.712;9.400;2023-02-03T03:46:27;5.00;99.90
5850;DHT22;2951;47.712;9.400;2023-02-03T03:48:56;5.00;99.90
5850;DHT22;2951;47.712;9.400;2023-02-03T03:51:29;5.00;99.90
5850;DHT22;2951;47.712;9.400;2023-02-03T03:53:59;4.90;99.90
5850;DHT22;2951;47.712;9.400;2023-02-03T03:56:31;4.90;99.90
5850;DHT22;2951;47.712;9.400;2023-02-03T03:58:59;4.90;99.90
5850;DHT22;2951;47.712;9.400;2023-02-03T04:01:26;4.90;99.90
5850;DHT22;2951;47.712;9.400;2023-02-03T04:03:56;4.90;99.90
5850;DHT22;2951;47.712;9.400;2023-02-03T04:06:25;4.90;99.90
5850;DHT22;2951;47.712;9.400;2023-02-03T04:08:52;4.90;99.90
5850;DHT22;2951;47.712;9.400;2023-02-03T04:11:18;4.90;99.90
5850;DHT22;2951;47.712;9.400;2023-02-03T04:14:03;4.90;99.90
5850;DHT22;2951;47.712;9.400;2023-02-03T04:16:30;5.00;99.90
5850;DHT22;2951;47.712;9.400;2023-02-03T04:18:57;4.90;99.90
5850;DHT22;2951;47.712;9.400;2023-02-03T04:21:23;5.00;99.90
5850;DHT22;2951;47.712;9.400;2023-02-03T04:23:50;4.90;99.90
5850;DHT22;2951;47.712;9.400;2023-02-03T04:26:17;4.90;99.90
5850;DHT22;2951;47.712;9.400;2023-02-03T04:28:44;5.00;99.90
5850;DHT22;2951;47.712;9.400;2023-02-03T04:31:10;5.00;99.90
5850;DHT22;2951;47.712;9.400;2023-02-03T04:33:37;5.00;99.90
5850;DHT22;2951;47.712;9.400;2023-02-03T04:36:04;5.00;99.90
5850;DHT22;2951;47.712;9.400;2023-02-03T04:38:30;5.00;99.90
5850;DHT22;2951;47.712;9.400;2023-02-03T04:40:58;5.00;99.90
5850;DHT22;2951;47.712;9.400;2023-02-03T04:43:25;5.00;99.90
5850;DHT22;2951;47.712;9.400;2023-02-03T04:45:52;5.00;99.90
5850;DHT22;2951;47.712;9.400;2023-02-03T04:48:19;5.00;99.90
5850;DHT22;2951;47.712;9.400;2023-02-03T04:50:45;5.10;99.90
5850;DHT22;2951;47.712;9.400;2023-02-03T04:53:12;5.00;99.90
5850;DHT22;2951;47.712;9.400;2023-02-03T04:55:44;5.00;99.90
5850;DHT22;2951;47.712;9.400;2023-02-03T04:58:11;5.00;99.90
5850;DHT22;2951;47.712;9.400;2023-02-03T05:00:38;5.00;99.90
5850;DHT22;2951;47.712;9.400;2023-02-03T05:03:04;5.00;99.90
5850;DHT22;2951;47.712;9.400;2023-02-03T05:05:31;5.10;99.90
5850;DHT22;2951;47.712;9.400;2023-02-03T05:07:57;5.00;99.90
5850;DHT22;2951;47.712;9.400;2023-02-03T05:10:24;5.00;99.90
5850;DHT22;2951;47.712;9.400;2023-02-03T05:12:51;5.00;99.90
5850;DHT22;2951;47.712;9.400;2023-02-03T05:15:18;5.00;99.90
5850;DHT22;2951;47.712;9.400;2023-02-03T05:17:44;5.00;99.90
5850;DHT22;2951;47.712;9.400;2023-02-03T05:20:11;5.00;99.90
5850;DHT22;2951;47.712;9.400;2023-02-03T05:22:38;5.00;99.90
5850;DHT22;2951;47.712;9.400;2023-02-03T05:25:05;5.00;99.90
5850;DHT22;2951;47.712;9.400;2023-02-03T05:27:31;5.00;99.90
5850;DHT22;2951;47.712;9.400;2023-02-03T05:29:58;5.00;99.90
5850;DHT22;2951;47.712;9.400;2023-02-03T05:32:24;5.00;99.90
5850;DHT22;2951;47.712;9.400;2023-02-03T05:34:51;5.00;99.90
5850;DHT22;2951;47.712;9.400;2023-02-03T05:37:18;5.00;99.90
5850;DHT22;2951;47.712;9.400;2023-02-03T05:39:45;5.00;99.90
5850;DHT22;2951;47.712;9.400;2023-02-03T05:42:11;5.00;99.90
5850;DHT22;2951;47.712;9.400;2023-02-03T05:44:38;5.00;99.90
5850;DHT22;2951;47.712;9.400;2023-02-03T05:47:05;5.00;99.90
5850;DHT22;2951;47.712;9.400;2023-02-03T05:49:31;4.90;99.90
5850;DHT22;2951;47.712;9.400;2023-02-03T05:51:58;4.90;99.90
5850;DHT22;2951;47.712;9.400;2023-02-03T05:54:25;4.90;99.90
5850;DHT22;2951;47.712;9.400;2023-02-03T05:56:51;4.90;99.90
5850;DHT22;2951;47.712;9.400;2023-02-03T05:59:18;4.90;99.90
5850;DHT22;2951;47.712;9.400;2023-02-03T06:01:45;4.90;99.90
5850;DHT22;2951;47.712;9.400;2023-02-03T06:04:11;4.90;99.90
5850;DHT22;2951;47.712;9.400;2023-02-03T06:06:38;5.00;99.90
5850;DHT22;2951;47.712;9.400;2023-02-03T06:09:05;5.00;99.90
5850;DHT22;2951;47.712;9.400;2023-02-03T06:11:33;5.00;99.90
5850;DHT22;2951;47.712;9.400;2023-02-03T06:13:59;5.00;99.90
5850;DHT22;2951;47.712;9.400;2023-02-03T06:16:26;5.00;99.90
5850;DHT22;2951;47.712;9.400;2023-02-03T06:18:54;5.00;99.90
5850;DHT22;2951;47.712;9.400;2023-02-03T06:21:25;5.00;99.90
5850;DHT22;2951;47.712;9.400;2023-02-03T06:23:51;5.00;99.90
5850;DHT22;2951;47.712;9.400;2023-02-03T06:26:18;4.90;99.90
5850;DHT22;2951;47.712;9.400;2023-02-03T06:28:45;5.00;99.90
5850;DHT22;2951;47.712;9.400;2023-02-03T06:31:11;5.00;99.90
5850;DHT22;2951;47.712;9.400;2023-02-03T06:33:38;5.00;99.90
5850;DHT22;2951;47.712;9.400;2023-02-03T06:36:05;5.00;99.90
5850;DHT22;2951;47.712;9.400;2023-02-03T06:38:31;5.00;99.90
5850;DHT22;2951;47.712;9.400;2023-02-03T06:40:58;5.00;99.90
5850;DHT22;2951;47.712;9.400;2023-02-03T06:43:25;5.00;99.90
5850;DHT22;2951;47.712;9.400;2023-02-03T06:45:51;4.90;99.90
5850;DHT22;2951;47.712;9.400;2023-02-03T06:48:18;4.90;99.90
5850;DHT22;2951;47.712;9.400;2023-02-03T06:50:45;4.90;99.90
5850;DHT22;2951;47.712;9.400;2023-02-03T06:53:14;4.90;99.90
5850;DHT22;2951;47.712;9.400;2023-02-03T06:55:40;4.90;99.90
5850;DHT22;2951;47.712;9.400;2023-02-03T06:58:07;4.90;99.90
5850;DHT22;2951;47.712;9.400;2023-02-03T07:00:34;4.90;99.90
5850;DHT22;2951;47.712;9.400;2023-02-03T07:03:00;4.90;99.90
5850;DHT22;2951;47.712;9.400;2023-02-03T07:05:28;4.90;99.90
5850;DHT22;2951;47.712;9.400;2023-02-03T07:07:55;4.90;99.90
5850;DHT22;2951;47.712;9.400;2023-02-03T07:10:21;4.90;99.90
5850;DHT22;2951;47.712;9.400;2023-02-03T07:12:48;4.80;99.90
5850;DHT22;2951;47.712;9.400;2023-02-03T07:15:16;4.80;99.90
5850;DHT22;2951;47.712;9.400;2023-02-03T07:17:43;4.90;99.90
5850;DHT22;2951;47.712;9.400;2023-02-03T07:20:09;4.90;99.90
5850;DHT22;2951;47.712;9.400;2023-02-03T07:22:36;4.80;99.90
5850;DHT22;2951;47.712;9.400;2023-02-03T07:25:04;4.80;99.90
5850;DHT22;2951;47.712;9.400;2023-02-03T07:27:31;4.90;99.90
5850;DHT22;2951;47.712;9.400;2023-02-03T07:29:58;4.90;99.90
5850;DHT22;2951;47.712;9.400;2023-02-03T07:32:24;4.90;99.90
5850;DHT22;2951;47.712;9.400;2023-02-03T07:34:51;4.90;99.90
5850;DHT22;2951;47.712;9.400;2023-02-03T07:37:18;4.90;99.90
5850;DHT22;2951;47.712;9.400;2023-02-03T07:39:44;4.90;99.90
5850;DHT22;2951;47.712;9.400;2023-02-03T07:42:11;4.90;99.90
5850;DHT22;2951;47.712;9.400;2023-02-03T07:44:38;4.80;99.90
5850;DHT22;2951;47.712;9.400;2023-02-03T07:47:04;4.80;99.90
5850;DHT22;2951;47.712;9.400;2023-02-03T07:49:31;4.80;99.90
5850;DHT22;2951;47.712;9.400;2023-02-03T07:51:58;4.80;99.90
5850;DHT22;2951;47.712;9.400;2023-02-03T07:54:24;4.80;99.90
5850;DHT22;2951;47.712;9.400;2023-02-03T07:56:51;4.80;99.90
5850;DHT22;2951;47.712;9.400;2023-02-03T07:59:19;4.80;99.90
5850;DHT22;2951;47.712;9.400;2023-02-03T08:01:46;4.80;99.90
5850;DHT22;2951;47.712;9.400;2023-02-03T08:04:13;4.80;99.90
5850;DHT22;2951;47.712;9.400;2023-02-03T08:06:42;4.80;99.90
5850;DHT22;2951;47.712;9.400;2023-02-03T08:09:08;4.80;99.90
5850;DHT22;2951;47.712;9.400;2023-02-03T08:11:35;4.90;99.90
5850;DHT22;2951;47.712;9.400;2023-02-03T08:14:02;4.90;99.90
5850;DHT22;2951;47.712;9.400;2023-02-03T08:16:28;4.90;99.90
5850;DHT22;2951;47.712;9.400;2023-02-03T08:18:55;5.00;99.90
5850;DHT22;2951;47.712;9.400;2023-02-03T08:21:23;5.00;99.90
5850;DHT22;2951;47.712;9.400;2023-02-03T08:23:49;5.00;99.90
5850;DHT22;2951;47.712;9.400;2023-02-03T08:26:16;5.10;99.90
5850;DHT22;2951;47.712;9.400;2023-02-03T08:28:47;5.10;99.90
5850;DHT22;2951;47.712;9.400;2023-02-03T08:31:13;5.20;99.90
5850;DHT22;2951;47.712;9.400;2023-02-03T08:33:40;5.20;99.90
5850;DHT22;2951;47.712;9.400;2023-02-03T08:36:07;5.30;99.90
5850;DHT22;2951;47.712;9.400;2023-02-03T08:38:34;5.30;99.90
5850;DHT22;2951;47.712;9.400;2023-02-03T08:41:00;5.30;99.90
5850;DHT22;2951;47.712;9.400;2023-02-03T08:43:27;5.30;99.90
5850;DHT22;2951;47.712;9.400;2023-02-03T08:45:53;5.40;99.90
5850;DHT22;2951;47.712;9.400;2023-02-03T08:48:20;5.40;99.90
5850;DHT22;2951;47.712;9.400;2023-02-03T08:50:47;5.40;99.90
5850;DHT22;2951;47.712;9.400;2023-02-03T08:53:18;5.40;99.90
5850;DHT22;2951;47.712;9.400;2023-02-03T08:55:44;5.50;99.90
5850;DHT22;2951;47.712;9.400;2023-02-03T08:58:11;5.50;99.90
5850;DHT22;2951;47.712;9.400;2023-02-03T09:00:38;5.50;99.90
5850;DHT22;2951;47.712;9.400;2023-02-03T09:03:04;5.60;99.90
5850;DHT22;2951;47.712;9.400;2023-02-03T09:05:31;5.70;99.90
5850;DHT22;2951;47.712;9.400;2023-02-03T09:07:58;5.90;99.90
5850;DHT22;2951;47.712;9.400;2023-02-03T09:10:24;6.00;99.90
5850;DHT22;2951;47.712;9.400;2023-02-03T09:12:51;5.90;99.90
5850;DHT22;2951;47.712;9.400;2023-02-03T09:15:18;5.90;99.90
5850;DHT22;2951;47.712;9.400;2023-02-03T09:17:45;6.00;99.90
5850;DHT22;2951;47.712;9.400;2023-02-03T09:20:11;6.20;99.90
5850;DHT22;2951;47.712;9.400;2023-02-03T09:22:41;6.10;99.90
5850;DHT22;2951;47.712;9.400;2023-02-03T09:25:08;6.10;99.90
5850;DHT22;2951;47.712;9.400;2023-02-03T09:27:34;6.20;99.90
5850;DHT22;2951;47.712;9.400;2023-02-03T09:30:02;6.30;99.90
5850;DHT22;2951;47.712;9.400;2023-02-03T09:32:28;6.40;99.90
5850;DHT22;2951;47.712;9.400;2023-02-03T09:34:55;6.50;99.90
5850;DHT22;2951;47.712;9.400;2023-02-03T09:37:22;6.60;99.90
5850;DHT22;2951;47.712;9.400;2023-02-03T09:39:48;6.50;99.90
5850;DHT22;2951;47.712;9.400;2023-02-03T09:42:23;6.60;99.90
5850;DHT22;2951;47.712;9.400;2023-02-03T09:45:09;6.70;99.90
5850;DHT22;2951;47.712;9.400;2023-02-03T09:47:41;6.80;99.90
5850;DHT22;2951;47.712;9.400;2023-02-03T09:50:27;6.70;99.90
5850;DHT22;2951;47.712;9.400;2023-02-03T09:52:56;6.70;99.90
5850;DHT22;2951;47.712;9.400;2023-02-03T09:55:29;6.70;99.90
5850;DHT22;2951;47.712;9.400;2023-02-03T10:00:26;6.90;99.90
5850;DHT22;2951;47.712;9.400;2023-02-03T10:03:15;6.80;99.90
5850;DHT22;2951;47.712;9.400;2023-02-03T10:05:48;6.80;99.90
5850;DHT22;2951;47.712;9.400;2023-02-03T10:11:15;6.90;99.90
5850;DHT22;2951;47.712;9.400;2023-02-03T10:18:44;7.30;99.90
5850;DHT22;2951;47.712;9.400;2023-02-03T10:21:13;7.50;99.90
5850;DHT22;2951;47.712;9.400;2023-02-03T10:23:42;7.30;99.90
5850;DHT22;2951;47.712;9.400;2023-02-03T10:26:13;7.20;99.90
5850;DHT22;2951;47.712;9.400;2023-02-03T10:28:44;7.20;99.90
5850;DHT22;2951;47.712;9.400;2023-02-03T10:31:15;7.20;99.90
5850;DHT22;2951;47.712;9.400;2023-02-03T10:33:43;7.30;99.90
5850;DHT22;2951;47.712;9.400;2023-02-03T10:38:42;7.00;99.90
5850;DHT22;2951;47.712;9.400;2023-02-03T10:41:10;7.00;99.90
5850;DHT22;2951;47.712;9.400;2023-02-03T10:43:37;7.00;99.90
5850;DHT22;2951;47.712;9.400;2023-02-03T10:46:14;7.20;99.90
5850;DHT22;2951;47.712;9.400;2023-02-03T10:48:41;7.30;99.90
5850;DHT22;2951;47.712;9.400;2023-02-03T10:51:16;7.40;99.90
5850;DHT22;2951;47.712;9.400;2023-02-03T10:53:44;7.20;99.90
5850;DHT22;2951;47.712;9.400;2023-02-03T10:56:12;7.20;99.90
5850;DHT22;2951;47.712;9.400;2023-02-03T10:58:45;7.20;99.90
5850;DHT22;2951;47.712;9.400;2023-02-03T11:01:13;7.30;99.90
5850;DHT22;2951;47.712;9.400;2023-02-03T11:03:43;7.10;99.90
5850;DHT22;2951;47.712;9.400;2023-02-03T11:06:11;7.20;99.90
5850;DHT22;2951;47.712;9.400;2023-02-03T11:08:39;7.30;99.90
5850;DHT22;2951;47.712;9.400;2023-02-03T11:11:07;7.30;99.90
5850;DHT22;2951;47.712;9.400;2023-02-03T11:13:34;7.20;99.90
5850;DHT22;2951;47.712;9.400;2023-02-03T11:16:15;7.30;99.90
5850;DHT22;2951;47.712;9.400;2023-02-03T11:23:49;7.30;99.90
5850;DHT22;2951;47.712;9.400;2023-02-03T11:26:18;7.40;99.90
5850;DHT22;2951;47.712;9.400;2023-02-03T11:28:46;7.30;99.90
5850;DHT22;2951;47.712;9.400;2023-02-03T11:31:33;7.10;99.90
5850;DHT22;2951;47.712;9.400;2023-02-03T11:34:01;7.10;99.90
5850;DHT22;2951;47.712;9.400;2023-02-03T11:36:29;7.10;99.90
5850;DHT22;2951;47.712;9.400;2023-02-03T11:39:09;7.10;99.90
5850;DHT22;2951;47.712;9.400;2023-02-03T11:41:37;7.10;99.90
5850;DHT22;2951;47.712;9.400;2023-02-03T11:44:38;7.10;99.90
5850;DHT22;2951;47.712;9.400;2023-02-03T11:47:08;7.10;99.90
5850;DHT22;2951;47.712;9.400;2023-02-03T11:49:53;7.20;99.90
5850;DHT22;2951;47.712;9.400;2023-02-03T11:54:58;7.10;99.90
5850;DHT22;2951;47.712;9.400;2023-02-03T12:05:18;7.30;99.90
5850;DHT22;2951;47.712;9.400;2023-02-03T12:12:55;7.30;99.90
5850;DHT22;2951;47.712;9.400;2023-02-03T12:18:22;7.30;99.90
5850;DHT22;2951;47.712;9.400;2023-02-03T12:31:22;7.50;99.90
5850;DHT22;2951;47.712;9.400;2023-02-03T12:33:54;7.50;99.90
5850;DHT22;2951;47.712;9.400;2023-02-03T12:36:36;7.50;99.90
5850;DHT22;2951;47.712;9.400;2023-02-03T12:39:05;7.50;99.90
5850;DHT22;2951;47.712;9.400;2023-02-03T12:41:36;7.50;99.90
5850;DHT22;2951;47.712;9.400;2023-02-03T12:44:14;7.50;99.90
5850;DHT22;2951;47.712;9.400;2023-02-03T12:46:43;7.50;99.90
5850;DHT22;2951;47.712;9.400;2023-02-03T12:52:22;7.40;99.90
5850;DHT22;2951;47.712;9.400;2023-02-03T12:54:42;7.40;99.90
5850;DHT22;2951;47.712;9.400;2023-02-03T12:57:13;7.40;99.90
5850;DHT22;2951;47.712;9.400;2023-02-03T12:59:42;7.20;99.90
5850;DHT22;2951;47.712;9.400;2023-02-03T13:02:16;7.20;99.90
5850;DHT22;2951;47.712;9.400;2023-02-03T13:04:47;7.20;99.90
5850;DHT22;2951;47.712;9.400;2023-02-03T13:10:02;7.30;99.90
5850;DHT22;2951;47.712;9.400;2023-02-03T13:12:38;7.40;99.90
5850;DHT22;2951;47.712;9.400;2023-02-03T13:17:54;7.50;99.90
5850;DHT22;2951;47.712;9.400;2023-02-03T13:20:23;7.50;99.90
5850;DHT22;2951;47.712;9.400;2023-02-03T13:22:50;7.60;99.90
5850;DHT22;2951;47.712;9.400;2023-02-03T13:25:21;7.60;99.90
5850;DHT22;2951;47.712;9.400;2023-02-03T13:42:59;7.50;99.90
5850;DHT22;2951;47.712;9.400;2023-02-03T13:45:39;7.50;99.90
5850;DHT22;2951;47.712;9.400;2023-02-03T13:48:14;7.40;99.90
5850;DHT22;2951;47.712;9.400;2023-02-03T13:50:41;7.40;99.90
5850;DHT22;2951;47.712;9.400;2023-02-03T13:55:42;7.50;99.90
5850;DHT22;2951;47.712;9.400;2023-02-03T13:58:20;7.40;99.90
5850;DHT22;2951;47.712;9.400;2023-02-03T14:03:15;7.40;99.90
5850;DHT22;2951;47.712;9.400;2023-02-03T14:05:45;7.40;99.90
5850;DHT22;2951;47.712;9.400;2023-02-03T14:13:41;7.40;99.90
5850;DHT22;2951;47.712;9.400;2023-02-03T14:16:21;7.40;99.90
5850;DHT22;2951;47.712;9.400;2023-02-03T14:18:48;7.40;99.90
5850;DHT22;2951;47.712;9.400;2023-02-03T14:21:19;7.40;99.90
5850;DHT22;2951;47.712;9.400;2023-02-03T14:23:50;7.40;99.90
5850;DHT22;2951;47.712;9.400;2023-02-03T14:26:19;7.30;99.90
5850;DHT22;2951;47.712;9.400;2023-02-03T14:28:46;7.30;99.90
5850;DHT22;2951;47.712;9.400;2023-02-03T14:31:21;7.30;99.90
5850;DHT22;2951;47.712;9.400;2023-02-03T14:36:54;7.30;99.90
5850;DHT22;2951;47.712;9.400;2023-02-03T14:47:28;7.20;99.90
5850;DHT22;2951;47.712;9.400;2023-02-03T14:57:53;7.20;99.90
5850;DHT22;2951;47.712;9.400;2023-02-03T15:00:32;7.20;99.90
5850;DHT22;2951;47.712;9.400;2023-02-03T15:05:34;7.10;99.90
5850;DHT22;2951;47.712;9.400;2023-02-03T15:08:02;7.10;99.90
5850;DHT22;2951;47.712;9.400;2023-02-03T15:10:39;7.10;99.90
5850;DHT22;2951;47.712;9.400;2023-02-03T15:15:52;7.00;99.90
5850;DHT22;2951;47.712;9.400;2023-02-03T15:18:30;7.00;99.90
5850;DHT22;2951;47.712;9.400;2023-02-03T15:20:56;7.00;99.90
5850;DHT22;2951;47.712;9.400;2023-02-03T15:23:37;7.00;99.90
5850;DHT22;2951;47.712;9.400;2023-02-03T15:26:43;7.00;99.90
5850;DHT22;2951;47.712;9.400;2023-02-03T15:29:00;7.00;99.90
5850;DHT22;2951;47.712;9.400;2023-02-03T15:31:29;7.00;99.90
5850;DHT22;2951;47.712;9.400;2023-02-03T15:33:59;7.00;99.90
5850;DHT22;2951;47.712;9.400;2023-02-03T15:36:30;7.00;99.90
5850;DHT22;2951;47.712;9.400;2023-02-03T15:39:06;7.00;99.90
5850;DHT22;2951;47.712;9.400;2023-02-03T15:41:36;7.00;99.90
5850;DHT22;2951;47.712;9.400;2023-02-03T15:44:10;7.00;99.90
5850;DHT22;2951;47.712;9.400;2023-02-03T15:46:39;7.00;99.90
5850;DHT22;2951;47.712;9.400;2023-02-03T15:49:12;7.00;99.90
5850;DHT22;2951;47.712;9.400;2023-02-03T15:51:44;6.90;99.90
5850;DHT22;2951;47.712;9.400;2023-02-03T15:56:54;6.90;99.90
5850;DHT22;2951;47.712;9.400;2023-02-03T15:59:24;6.80;99.90
5850;DHT22;2951;47.712;9.400;2023-02-03T16:01:52;6.80;99.90
5850;DHT22;2951;47.712;9.400;2023-02-03T16:04:19;6.90;99.90
5850;DHT22;2951;47.712;9.400;2023-02-03T16:06:47;6.90;99.90
5850;DHT22;2951;47.712;9.400;2023-02-03T16:14:38;6.80;99.90
5850;DHT22;2951;47.712;9.400;2023-02-03T16:17:05;6.90;99.90
5850;DHT22;2951;47.712;9.400;2023-02-03T16:19:32;6.90;99.90
5850;DHT22;2951;47.712;9.400;2023-02-03T16:22:04;6.90;99.90
5850;DHT22;2951;47.712;9.400;2023-02-03T16:24:34;6.80;99.90
5850;DHT22;2951;47.712;9.400;2023-02-03T16:29:48;6.80;99.90
5850;DHT22;2951;47.712;9.400;2023-02-03T16:32:34;6.80;99.90
5850;DHT22;2951;47.712;9.400;2023-02-03T16:35:19;6.80;99.90
5850;DHT22;2951;47.712;9.400;2023-02-03T16:38:14;6.80;99.90
5850;DHT22;2951;47.712;9.400;2023-02-03T16:41:00;6.70;99.90
5850;DHT22;2951;47.712;9.400;2023-02-03T16:43:45;6.70;99.90
5850;DHT22;2951;47.712;9.400;2023-02-03T16:46:31;6.70;99.90
5850;DHT22;2951;47.712;9.400;2023-02-03T16:49:16;6.70;99.90
5850;DHT22;2951;47.712;9.400;2023-02-03T16:52:02;6.70;99.90
5850;DHT22;2951;47.712;9.400;2023-02-03T16:54:28;6.70;99.90
5850;DHT22;2951;47.712;9.400;2023-02-03T16:56:55;6.60;99.90
5850;DHT22;2951;47.712;9.400;2023-02-03T16:59:24;6.70;99.90
5850;DHT22;2951;47.712;9.400;2023-02-03T17:01:50;6.60;99.90
5850;DHT22;2951;47.712;9.400;2023-02-03T17:04:17;6.70;99.90
5850;DHT22;2951;47.712;9.400;2023-02-03T17:06:44;6.70;99.90
5850;DHT22;2951;47.712;9.400;2023-02-03T17:09:10;6.70;99.90
5850;DHT22;2951;47.712;9.400;2023-02-03T17:11:37;6.70;99.90
5850;DHT22;2951;47.712;9.400;2023-02-03T17:14:04;6.70;99.90
5850;DHT22;2951;47.712;9.400;2023-02-03T17:16:31;6.70;99.90
5850;DHT22;2951;47.712;9.400;2023-02-03T17:18:58;6.80;99.90
5850;DHT22;2951;47.712;9.400;2023-02-03T17:21:26;6.80;99.90
5850;DHT22;2951;47.712;9.400;2023-02-03T17:23:53;6.70;99.90
5850;DHT22;2951;47.712;9.400;2023-02-03T17:26:20;6.70;99.90
5850;DHT22;2951;47.712;9.400;2023-02-03T17:28:47;6.70;99.90
5850;DHT22;2951;47.712;9.400;2023-02-03T17:31:14;6.70;99.90
5850;DHT22;2951;47.712;9.400;2023-02-03T17:33:41;6.60;99.90
5850;DHT22;2951;47.712;9.400;2023-02-03T17:36:12;6.60;99.90
5850;DHT22;2951;47.712;9.400;2023-02-03T17:38:43;6.70;99.90
5850;DHT22;2951;47.712;9.400;2023-02-03T17:41:28;6.70;99.90
5850;DHT22;2951;47.712;9.400;2023-02-03T17:44:12;6.60;99.90
5850;DHT22;2951;47.712;9.400;2023-02-03T17:46:56;6.60;99.90
5850;DHT22;2951;47.712;9.400;2023-02-03T17:49:41;6.70;99.90
5850;DHT22;2951;47.712;9.400;2023-02-03T17:52:27;6.60;99.90
5850;DHT22;2951;47.712;9.400;2023-02-03T17:55:11;6.60;99.90
5850;DHT22;2951;47.712;9.400;2023-02-03T17:57:38;6.70;99.90
5850;DHT22;2951;47.712;9.400;2023-02-03T18:00:05;6.70;99.90
5850;DHT22;2951;47.712;9.400;2023-02-03T18:02:32;6.70;99.90
5850;DHT22;2951;47.712;9.400;2023-02-03T18:04:58;6.70;99.90
5850;DHT22;2951;47.712;9.400;2023-02-03T18:07:25;6.70;99.90
5850;DHT22;2951;47.712;9.400;2023-02-03T18:09:52;6.70;99.90
5850;DHT22;2951;47.712;9.400;2023-02-03T18:12:18;6.70;99.90
5850;DHT22;2951;47.712;9.400;2023-02-03T18:14:45;6.70;99.90
5850;DHT22;2951;47.712;9.400;2023-02-03T18:17:11;6.70;99.90
5850;DHT22;2951;47.712;9.400;2023-02-03T18:19:38;6.70;99.90
5850;DHT22;2951;47.712;9.400;2023-02-03T18:22:12;6.80;99.90
5850;DHT22;2951;47.712;9.400;2023-02-03T18:24:40;6.80;99.90
5850;DHT22;2951;47.712;9.400;2023-02-03T18:27:10;6.80;99.90
5850;DHT22;2951;47.712;9.400;2023-02-03T18:29:42;6.80;99.90
5850;DHT22;2951;47.712;9.400;2023-02-03T18:32:10;6.80;99.90
5850;DHT22;2951;47.712;9.400;2023-02-03T18:34:36;6.80;99.90
5850;DHT22;2951;47.712;9.400;2023-02-03T18:37:03;6.80;99.90
5850;DHT22;2951;47.712;9.400;2023-02-03T18:39:30;6.70;99.90
5850;DHT22;2951;47.712;9.400;2023-02-03T18:41:56;6.80;99.90
5850;DHT22;2951;47.712;9.400;2023-02-03T18:44:23;6.80;99.90
5850;DHT22;2951;47.712;9.400;2023-02-03T18:46:53;6.80;99.90
5850;DHT22;2951;47.712;9.400;2023-02-03T18:49:20;6.80;99.90
5850;DHT22;2951;47.712;9.400;2023-02-03T18:51:46;6.70;99.90